createdAt,value
2017-09-15T00:02:11.364Z,1.23
2017-09-15T00:04:39.571Z,1.27
2017-09-15T00:07:07.053Z,1.52
2017-09-15T00:09:34.495Z,1.30
2017-09-15T00:12:01.940Z,1.70
2017-09-15T00:14:29.420Z,1.60
2017-09-15T00:16:56.849Z,1.73
2017-09-15T00:19:24.308Z,1.50
2017-09-15T00:21:51.765Z,1.98
2017-09-15T00:24:19.219Z,1.65
2017-09-15T00:26:46.674Z,1.75
2017-09-15T00:29:14.164Z,1.30
2017-09-15T00:31:41.607Z,1.40
2017-09-15T00:34:09.066Z,1.55
2017-09-15T00:36:36.521Z,1.75
2017-09-15T00:39:03.967Z,1.40
2017-09-15T00:41:31.431Z,1.80
2017-09-15T00:43:58.896Z,1.48
2017-09-15T00:46:26.336Z,1.70
2017-09-15T00:48:53.822Z,1.40
2017-09-15T00:51:21.267Z,1.62
2017-09-15T00:53:50.254Z,1.25
2017-09-15T00:56:17.685Z,1.50
2017-09-15T00:58:45.140Z,1.37
2017-09-15T01:01:12.602Z,2.08
2017-09-15T01:03:40.099Z,1.40
2017-09-15T01:06:08.310Z,1.30
2017-09-15T01:08:35.751Z,1.73
2017-09-15T01:11:03.214Z,1.60
2017-09-15T01:13:30.671Z,1.40
2017-09-15T01:15:58.165Z,1.73
2017-09-15T01:18:25.669Z,2.05
2017-09-15T01:20:53.895Z,1.70
2017-09-15T01:23:21.360Z,1.65
2017-09-15T01:25:48.816Z,1.55
2017-09-15T01:28:16.257Z,1.52
2017-09-15T01:30:43.720Z,1.42
2017-09-15T01:33:11.171Z,1.50
2017-09-15T01:35:38.615Z,1.45
2017-09-15T01:38:06.081Z,1.87
2017-09-15T01:40:33.508Z,1.40
2017-09-15T01:43:00.970Z,1.70
2017-09-15T01:45:28.404Z,1.27
2017-09-15T01:47:56.639Z,1.50
2017-09-15T01:50:24.079Z,1.62
2017-09-15T01:52:51.534Z,1.70
2017-09-15T01:55:18.981Z,2.55
2017-09-15T01:57:46.416Z,2.47
2017-09-15T02:00:13.874Z,2.10
2017-09-15T02:02:41.334Z,1.80
2017-09-15T02:05:08.796Z,1.70
2017-09-15T02:07:36.237Z,1.65
2017-09-15T02:10:03.682Z,1.75
2017-09-15T02:12:31.908Z,1.60
2017-09-15T02:14:59.340Z,1.90
2017-09-15T02:17:26.797Z,1.48
2017-09-15T02:19:54.241Z,1.77
2017-09-15T02:22:21.709Z,1.70
2017-09-15T02:24:49.149Z,1.80
2017-09-15T02:27:16.593Z,1.75
2017-09-15T02:29:45.434Z,1.30
2017-09-15T02:32:12.869Z,2.20
2017-09-15T02:34:40.348Z,2.15
2017-09-15T02:37:07.784Z,1.80
2017-09-15T02:39:35.318Z,1.83
2017-09-15T02:42:02.779Z,1.80
2017-09-15T02:44:30.236Z,2.05
2017-09-15T02:46:57.725Z,1.23
2017-09-15T02:49:25.196Z,1.67
2017-09-15T02:51:52.709Z,1.70
2017-09-15T02:54:20.162Z,1.50
2017-09-15T02:56:47.622Z,1.85
2017-09-15T02:59:15.072Z,1.77
2017-09-15T03:01:42.511Z,2.05
2017-09-15T03:04:10.742Z,2.00
2017-09-15T03:06:38.215Z,1.98
2017-09-15T03:09:05.678Z,2.10
2017-09-15T03:11:33.116Z,1.95
2017-09-15T03:14:00.556Z,1.80
2017-09-15T03:16:28.017Z,1.90
2017-09-15T03:18:55.476Z,1.95
2017-09-15T03:21:22.935Z,2.22
2017-09-15T03:23:51.143Z,1.55
2017-09-15T03:26:19.375Z,2.35
2017-09-15T03:28:46.816Z,2.70
2017-09-15T03:31:14.276Z,1.60
2017-09-15T03:33:41.732Z,2.00
2017-09-15T03:36:09.194Z,2.40
2017-09-15T03:38:36.628Z,2.30
2017-09-15T03:41:04.085Z,2.20
2017-09-15T03:43:31.516Z,1.98
2017-09-15T03:45:59.849Z,2.20
2017-09-15T03:48:27.929Z,2.20
2017-09-15T03:50:55.410Z,1.90
2017-09-15T03:53:23.613Z,2.30
2017-09-15T03:55:51.057Z,2.08
2017-09-15T03:58:18.542Z,2.50
2017-09-15T04:00:46.033Z,2.15
2017-09-15T04:03:13.492Z,2.45
2017-09-15T04:05:40.940Z,2.30
2017-09-15T04:08:08.402Z,2.58
2017-09-15T04:10:35.862Z,2.42
2017-09-15T04:13:03.332Z,3.05
2017-09-15T04:15:31.572Z,2.28
2017-09-15T04:17:59.784Z,2.17
2017-09-15T04:20:28.059Z,2.37
2017-09-15T04:22:56.263Z,2.05
2017-09-15T04:25:23.737Z,2.33
2017-09-15T04:27:51.180Z,2.85
2017-09-15T04:30:18.617Z,2.70
2017-09-15T04:32:46.069Z,2.42
2017-09-15T04:35:14.277Z,2.40
2017-09-15T04:37:41.844Z,2.10
2017-09-15T04:40:09.293Z,2.40
2017-09-15T04:42:36.732Z,2.30
2017-09-15T04:45:04.200Z,2.35
2017-09-15T04:47:31.640Z,1.80
2017-09-15T04:49:59.169Z,2.22
2017-09-15T04:52:27.459Z,2.35
2017-09-15T04:54:54.892Z,2.20
2017-09-15T04:57:22.335Z,2.40
2017-09-15T04:59:49.802Z,2.50
2017-09-15T05:02:17.247Z,2.12
2017-09-15T05:04:44.704Z,2.50
2017-09-15T05:07:12.137Z,2.50
2017-09-15T05:09:39.601Z,2.40
2017-09-15T05:12:07.148Z,3.28
2017-09-15T05:14:35.373Z,3.17
2017-09-15T05:17:02.800Z,3.70
2017-09-15T05:19:30.256Z,2.87
2017-09-15T05:21:57.705Z,2.95
2017-09-15T05:24:25.153Z,2.92
2017-09-15T05:26:53.356Z,3.85
2017-09-15T05:29:20.833Z,5.78
2017-09-15T05:31:49.040Z,3.95
2017-09-15T05:34:16.505Z,5.35
2017-09-15T05:36:43.959Z,3.92
2017-09-15T05:39:11.484Z,4.35
2017-09-15T05:41:39.713Z,4.40
2017-09-15T05:44:07.147Z,4.50
2017-09-15T05:46:34.603Z,5.50
2017-09-15T05:49:02.050Z,4.90
2017-09-15T05:51:29.516Z,4.55
2017-09-15T05:53:56.973Z,5.85
2017-09-15T05:56:24.417Z,5.43
2017-09-15T05:58:51.872Z,5.25
2017-09-15T06:01:19.315Z,6.12
2017-09-15T06:03:46.783Z,6.18
2017-09-15T06:06:14.260Z,6.35
2017-09-15T06:08:41.703Z,6.12
2017-09-15T06:11:09.174Z,6.00
2017-09-15T06:13:37.393Z,5.10
2017-09-15T06:16:05.638Z,5.53
2017-09-15T06:18:33.097Z,5.65
2017-09-15T06:21:01.244Z,6.37
2017-09-15T06:23:29.470Z,5.47
2017-09-15T06:25:57.681Z,5.80
2017-09-15T06:28:25.154Z,6.40
2017-09-15T06:30:52.609Z,6.62
2017-09-15T06:33:20.064Z,6.78
2017-09-15T06:35:47.522Z,6.40
2017-09-15T06:38:16.109Z,6.60
2017-09-15T06:40:44.051Z,6.97
2017-09-15T06:43:11.494Z,6.53
2017-09-15T06:45:38.970Z,6.37
2017-09-15T06:48:06.446Z,6.65
2017-09-15T06:50:34.020Z,6.82
2017-09-15T06:53:01.502Z,6.00
2017-09-15T06:55:28.935Z,6.97
2017-09-15T06:57:56.398Z,6.65
2017-09-15T07:00:23.856Z,6.37
2017-09-15T07:02:51.351Z,5.65
2017-09-15T07:05:18.792Z,5.37
2017-09-15T07:07:46.236Z,5.37
2017-09-15T07:10:14.456Z,4.80
2017-09-15T07:12:41.898Z,4.80
2017-09-15T07:15:09.369Z,5.20
2017-09-15T07:17:36.800Z,5.10
2017-09-15T07:20:04.292Z,4.72
2017-09-15T07:22:31.757Z,4.82
2017-09-15T07:24:59.197Z,4.82
2017-09-15T07:27:26.668Z,4.50
2017-09-15T07:29:54.124Z,4.78
2017-09-15T07:32:21.598Z,4.20
2017-09-15T07:34:49.057Z,4.60
2017-09-15T07:37:16.527Z,4.37
2017-09-15T07:39:44.757Z,4.43
2017-09-15T07:42:12.225Z,4.75
2017-09-15T07:44:39.789Z,4.80
2017-09-15T07:47:07.235Z,5.40
2017-09-15T07:49:34.693Z,5.82
2017-09-15T07:52:03.644Z,4.62
2017-09-15T07:54:31.116Z,5.62
2017-09-15T07:56:58.576Z,5.18
2017-09-15T07:59:26.031Z,4.95
2017-09-15T08:01:53.504Z,5.35
2017-09-15T08:04:20.953Z,4.70
2017-09-15T08:06:48.429Z,4.62
2017-09-15T08:09:15.873Z,4.85
2017-09-15T08:11:43.324Z,4.35
2017-09-15T08:14:11.572Z,5.22
2017-09-15T08:16:39.020Z,4.78
2017-09-15T08:19:06.499Z,4.55
2017-09-15T08:21:33.944Z,4.82
2017-09-15T08:24:01.429Z,6.07
2017-09-15T08:26:29.534Z,5.40
2017-09-15T08:28:57.761Z,4.70
2017-09-15T08:31:25.208Z,4.60
2017-09-15T08:33:52.696Z,6.20
2017-09-15T08:36:20.164Z,4.60
2017-09-15T08:38:47.607Z,4.28
2017-09-15T08:41:15.086Z,3.90
2017-09-15T08:43:43.300Z,4.60
2017-09-15T08:46:10.768Z,5.25
2017-09-15T08:48:38.229Z,4.00
2017-09-15T08:51:05.718Z,4.93
2017-09-15T08:53:33.181Z,5.65
2017-09-15T08:56:00.616Z,5.35
2017-09-15T08:58:28.085Z,4.85
2017-09-15T09:00:56.143Z,4.75
2017-09-15T09:03:23.603Z,4.95
2017-09-15T09:05:51.044Z,5.20
2017-09-15T09:08:18.506Z,4.43
2017-09-15T09:10:45.973Z,5.28
2017-09-15T09:13:13.440Z,4.05
2017-09-15T09:15:40.908Z,4.28
2017-09-15T09:18:09.133Z,4.30
2017-09-15T09:20:36.616Z,4.20
2017-09-15T09:23:04.057Z,3.90
2017-09-15T09:25:31.513Z,3.40
2017-09-15T09:27:58.996Z,3.23
2017-09-15T09:30:26.436Z,3.23
2017-09-15T09:32:53.905Z,4.10
2017-09-15T09:35:21.407Z,3.50
2017-09-15T09:37:48.853Z,3.17
2017-09-15T09:40:16.288Z,3.90
2017-09-15T09:42:44.512Z,3.47
2017-09-15T09:45:11.958Z,3.53
2017-09-15T09:47:39.417Z,3.33
2017-09-15T09:50:06.882Z,3.20
2017-09-15T09:52:34.313Z,3.30
2017-09-15T09:55:01.779Z,3.90
2017-09-15T09:57:29.228Z,3.43
2017-09-15T09:59:56.680Z,3.00
2017-09-15T10:02:24.165Z,3.27
2017-09-15T10:04:51.622Z,3.50
2017-09-15T10:07:19.089Z,3.10
2017-09-15T10:09:46.525Z,3.70
2017-09-15T10:12:13.993Z,3.23
2017-09-15T10:14:41.435Z,3.27
2017-09-15T10:17:08.908Z,2.90
2017-09-15T10:19:36.361Z,3.03
2017-09-15T10:22:03.839Z,2.70
2017-09-15T10:24:31.281Z,3.33
2017-09-15T10:26:58.751Z,3.00
2017-09-15T10:29:26.204Z,2.83
2017-09-15T10:31:53.695Z,2.80
2017-09-15T10:34:21.979Z,2.80
2017-09-15T10:36:49.428Z,2.87
2017-09-15T10:39:17.658Z,3.50
2017-09-15T10:41:45.899Z,3.03
2017-09-15T10:44:13.360Z,2.93
2017-09-15T10:46:40.818Z,4.50
2017-09-15T10:49:08.250Z,3.30
2017-09-15T10:51:37.352Z,2.80
2017-09-15T10:54:05.577Z,2.87
2017-09-15T10:56:33.023Z,2.70
2017-09-15T10:59:06.211Z,3.07
2017-09-15T11:01:33.692Z,3.27
2017-09-15T11:04:01.168Z,3.27
2017-09-15T11:06:29.378Z,2.63
2017-09-15T11:08:56.853Z,3.10
2017-09-15T11:11:24.304Z,3.60
2017-09-15T11:13:51.740Z,3.23
2017-09-15T11:16:19.215Z,2.43
2017-09-15T11:18:46.661Z,2.60
2017-09-15T11:21:14.126Z,2.80
2017-09-15T11:23:41.593Z,2.13
2017-09-15T11:26:09.032Z,3.00
2017-09-15T11:28:36.472Z,2.47
2017-09-15T11:31:03.923Z,2.20
2017-09-15T11:33:31.381Z,2.40
2017-09-15T11:35:58.838Z,3.43
2017-09-15T11:38:26.301Z,1.97
2017-09-15T11:40:53.765Z,3.10
2017-09-15T11:43:21.220Z,2.57
2017-09-15T11:45:48.683Z,2.50
2017-09-15T11:48:16.136Z,2.43
2017-09-15T11:50:43.601Z,2.00
2017-09-15T11:53:11.047Z,2.00
2017-09-15T11:55:38.516Z,1.97
2017-09-15T11:58:05.967Z,2.10
2017-09-15T12:00:33.440Z,2.40
2017-09-15T12:03:00.883Z,2.30
2017-09-15T12:05:28.348Z,2.20
2017-09-15T12:07:55.840Z,2.07
2017-09-15T12:10:24.090Z,1.80
2017-09-15T12:12:51.576Z,2.70
2017-09-15T12:15:19.025Z,2.10
2017-09-15T12:17:46.475Z,2.37
2017-09-15T12:20:13.941Z,2.00
2017-09-15T12:22:42.145Z,1.60
2017-09-15T12:25:09.639Z,2.20
2017-09-15T12:27:37.088Z,1.77
2017-09-15T12:30:04.552Z,1.60
2017-09-15T12:32:32.001Z,2.90
2017-09-15T12:34:59.463Z,1.10
2017-09-15T12:37:26.904Z,1.17
2017-09-15T12:39:54.361Z,1.53
2017-09-15T12:42:21.813Z,1.30
2017-09-15T12:44:49.282Z,0.60
2017-09-15T12:47:16.753Z,1.40
2017-09-15T12:49:44.238Z,1.00
2017-09-15T12:52:11.690Z,1.40
2017-09-15T12:54:39.910Z,1.48
2017-09-15T12:57:07.367Z,0.93
2017-09-15T12:59:34.809Z,0.95
2017-09-15T13:02:02.300Z,1.05
2017-09-15T13:04:29.840Z,0.98
2017-09-15T13:06:57.312Z,1.50
2017-09-15T13:09:24.761Z,1.27
2017-09-15T13:11:52.310Z,1.20
2017-09-15T13:14:19.754Z,1.25
2017-09-15T13:16:47.215Z,0.93
2017-09-15T13:19:14.666Z,1.00
2017-09-15T13:21:42.111Z,0.80
2017-09-15T13:24:09.548Z,0.90
2017-09-15T13:26:37.776Z,1.53
2017-09-15T13:29:05.230Z,1.17
2017-09-15T13:31:32.671Z,0.83
2017-09-15T13:34:00.153Z,1.20
2017-09-15T13:36:27.589Z,1.40
2017-09-15T13:38:55.067Z,1.40
2017-09-15T13:41:23.334Z,1.10
2017-09-15T13:43:50.776Z,1.37
2017-09-15T13:46:18.233Z,1.17
2017-09-15T13:48:45.693Z,1.17
2017-09-15T13:51:13.171Z,1.20
2017-09-15T13:53:40.594Z,1.10
2017-09-15T13:56:08.067Z,1.13
2017-09-15T13:58:35.500Z,1.03
2017-09-15T14:01:02.989Z,1.33
2017-09-15T14:03:30.419Z,1.20
2017-09-15T14:05:57.887Z,1.43
2017-09-15T14:08:25.372Z,1.30
2017-09-15T14:10:52.834Z,1.33
2017-09-15T14:13:20.304Z,1.40
2017-09-15T14:15:48.508Z,1.07
2017-09-15T14:18:15.969Z,1.20
2017-09-15T14:20:43.420Z,1.27
2017-09-15T14:23:10.872Z,1.07
2017-09-15T14:25:38.332Z,1.37
2017-09-15T14:28:05.852Z,1.30
2017-09-15T14:30:34.148Z,1.50
2017-09-15T14:33:01.620Z,1.30
2017-09-15T14:35:29.060Z,1.10
2017-09-15T14:37:56.516Z,1.27
2017-09-15T14:40:23.976Z,2.30
2017-09-15T14:42:51.621Z,1.80
2017-09-15T14:45:19.823Z,1.67
2017-09-15T14:47:47.287Z,1.63
2017-09-15T14:50:14.747Z,1.40
2017-09-15T14:52:42.180Z,1.30
2017-09-15T14:55:09.751Z,1.30
2017-09-15T14:57:37.203Z,1.37
2017-09-15T15:00:04.670Z,1.40
2017-09-15T15:02:32.128Z,1.80
2017-09-15T15:04:59.584Z,1.80
2017-09-15T15:07:27.075Z,1.70
2017-09-15T15:09:54.538Z,1.90
2017-09-15T15:12:21.982Z,1.83
2017-09-15T15:14:49.433Z,2.50
2017-09-15T15:17:16.907Z,1.60
2017-09-15T15:19:44.348Z,1.67
2017-09-15T15:22:11.815Z,1.60
2017-09-15T15:24:39.256Z,1.73
2017-09-15T15:27:06.718Z,1.67
2017-09-15T15:29:34.156Z,1.60
2017-09-15T15:32:01.754Z,1.87
2017-09-15T15:34:29.210Z,1.90
2017-09-15T15:36:56.661Z,1.60
2017-09-15T15:39:24.128Z,1.30
2017-09-15T15:41:52.331Z,1.37
2017-09-15T15:44:19.772Z,2.03
2017-09-15T15:46:48.180Z,1.40
2017-09-15T15:49:15.625Z,1.00
2017-09-15T15:51:43.087Z,1.00
2017-09-15T15:54:10.562Z,1.03
2017-09-15T15:56:38.016Z,1.20
2017-09-15T15:59:05.552Z,1.17
2017-09-15T16:01:33.020Z,1.10
2017-09-15T16:04:00.480Z,1.13
2017-09-15T16:06:27.945Z,1.00
2017-09-15T16:08:55.391Z,1.00
2017-09-15T16:11:22.831Z,1.80
2017-09-15T16:13:50.284Z,1.23
2017-09-15T16:16:17.744Z,1.20
2017-09-15T16:18:45.201Z,1.10
2017-09-15T16:21:12.664Z,1.40
2017-09-15T16:23:40.134Z,1.42
2017-09-15T16:26:07.716Z,1.20
2017-09-15T16:28:35.198Z,1.10
2017-09-15T16:31:03.423Z,1.37
2017-09-15T16:33:31.661Z,1.17
2017-09-15T16:35:59.128Z,0.95
2017-09-15T16:38:32.372Z,1.10
2017-09-15T16:41:05.473Z,1.48
2017-09-15T16:43:39.619Z,1.10
2017-09-15T16:46:13.428Z,1.40
2017-09-15T16:48:47.325Z,1.33
2017-09-15T16:51:14.773Z,2.47
2017-09-15T16:53:42.235Z,3.20
2017-09-15T16:56:09.712Z,1.33
2017-09-15T16:58:37.900Z,1.50
2017-09-15T17:01:05.472Z,1.35
2017-09-15T17:03:32.937Z,1.48
2017-09-15T17:06:00.409Z,1.35
2017-09-15T17:08:28.672Z,1.48
2017-09-15T17:10:56.112Z,1.20
2017-09-15T17:13:23.688Z,1.62
2017-09-15T17:15:51.213Z,1.75
2017-09-15T17:18:18.696Z,1.65
2017-09-15T17:20:46.180Z,2.67
2017-09-15T17:23:14.399Z,2.05
2017-09-15T17:25:41.985Z,2.20
2017-09-15T17:28:09.452Z,1.40
2017-09-15T17:30:36.902Z,1.30
2017-09-15T17:33:04.380Z,1.48
2017-09-15T17:35:32.629Z,1.60
2017-09-15T17:38:00.108Z,1.42
2017-09-15T17:40:27.597Z,1.60
2017-09-15T17:42:55.044Z,1.10
2017-09-15T17:45:22.558Z,1.50
2017-09-15T17:47:50.023Z,1.80
2017-09-15T17:50:17.476Z,1.45
2017-09-15T17:52:44.956Z,1.65
2017-09-15T17:55:12.433Z,2.53
2017-09-15T17:57:39.875Z,2.00
2017-09-15T18:00:08.099Z,2.10
2017-09-15T18:02:35.545Z,2.20
2017-09-15T18:05:03.017Z,1.85
2017-09-15T18:07:30.466Z,2.50
2017-09-15T18:09:57.989Z,2.20
2017-09-15T18:12:25.440Z,2.20
2017-09-15T18:14:53.576Z,1.95
2017-09-15T18:17:21.034Z,2.30
2017-09-15T18:19:49.317Z,2.65
2017-09-15T18:22:17.577Z,2.45
2017-09-15T18:24:45.034Z,2.78
2017-09-15T18:27:12.477Z,2.53
2017-09-15T18:29:39.960Z,2.90
2017-09-15T18:32:08.252Z,3.08
2017-09-15T18:34:36.464Z,2.85
2017-09-15T18:37:03.913Z,3.00
2017-09-15T18:39:31.376Z,3.70
2017-09-15T18:41:58.837Z,3.00
2017-09-15T18:44:26.306Z,2.03
2017-09-15T18:46:53.761Z,2.50
2017-09-15T18:49:22.494Z,2.22
2017-09-15T18:51:50.712Z,2.50
2017-09-15T18:54:18.203Z,2.20
2017-09-15T18:56:45.696Z,2.65
2017-09-15T18:59:13.182Z,2.47
2017-09-15T19:01:40.649Z,2.60
2017-09-15T19:04:08.117Z,3.65
2017-09-15T19:06:35.613Z,4.25
2017-09-15T19:09:03.966Z,3.78
2017-09-15T19:11:32.197Z,3.65
2017-09-15T19:13:59.654Z,4.40
2017-09-15T19:16:27.125Z,4.70
2017-09-15T19:18:54.582Z,3.33
2017-09-15T19:21:22.026Z,3.53
2017-09-15T19:23:49.584Z,3.45
2017-09-15T19:26:17.044Z,3.10
2017-09-15T19:28:44.525Z,3.60
2017-09-15T19:31:12.017Z,2.70
2017-09-15T19:33:40.244Z,3.42
2017-09-15T19:36:07.726Z,3.08
2017-09-15T19:38:35.963Z,2.87
2017-09-15T19:41:03.414Z,4.12
2017-09-15T19:43:30.894Z,4.15
2017-09-15T19:45:58.353Z,3.20
2017-09-15T19:48:25.814Z,2.60
2017-09-15T19:50:53.264Z,2.53
2017-09-15T19:53:21.732Z,2.70
2017-09-15T19:55:49.977Z,2.80
2017-09-15T19:58:17.444Z,2.60
2017-09-15T20:00:44.896Z,1.95
2017-09-15T20:03:12.340Z,2.67
2017-09-15T20:05:39.810Z,2.78
2017-09-15T20:08:07.278Z,2.90
2017-09-15T20:10:34.728Z,2.75
2017-09-15T20:13:02.181Z,3.37
2017-09-15T20:15:29.698Z,2.80
2017-09-15T20:17:57.912Z,3.37
2017-09-15T20:20:25.342Z,3.10
2017-09-15T20:22:52.806Z,2.97
2017-09-15T20:25:20.263Z,2.87
2017-09-15T20:27:47.724Z,2.60
2017-09-15T20:30:15.215Z,2.60
2017-09-15T20:32:42.664Z,3.35
2017-09-15T20:35:10.158Z,3.50
2017-09-15T20:37:38.370Z,3.37
2017-09-15T20:40:05.835Z,4.53
2017-09-15T20:42:33.279Z,4.72
2017-09-15T20:45:00.715Z,3.60
2017-09-15T20:47:28.189Z,4.50
2017-09-15T20:49:55.805Z,3.90
2017-09-15T20:52:23.245Z,3.40
2017-09-15T20:54:50.708Z,3.95
2017-09-15T20:57:18.177Z,3.80
2017-09-15T20:59:45.620Z,3.22
2017-09-15T21:02:13.072Z,3.40
2017-09-15T21:04:40.521Z,3.80
2017-09-15T21:07:07.996Z,5.10
2017-09-15T21:09:35.437Z,4.65
2017-09-15T21:12:02.938Z,4.25
2017-09-15T21:14:31.181Z,3.70
2017-09-15T21:16:59.518Z,3.33
2017-09-15T21:19:26.983Z,3.25
2017-09-15T21:21:54.456Z,4.35
2017-09-15T21:24:21.905Z,4.60
2017-09-15T21:26:49.352Z,4.53
2017-09-15T21:29:16.801Z,3.55
2017-09-15T21:31:44.267Z,3.70
2017-09-15T21:34:11.715Z,3.92
2017-09-15T21:36:39.184Z,3.22
2017-09-15T21:39:06.658Z,3.30
2017-09-15T21:41:34.153Z,4.05
2017-09-15T21:44:02.058Z,3.40
2017-09-15T21:46:29.501Z,4.20
2017-09-15T21:48:56.949Z,3.35
2017-09-15T21:51:24.392Z,4.18
2017-09-15T21:53:51.860Z,4.43
2017-09-15T21:56:19.297Z,4.70
2017-09-15T21:58:47.515Z,4.32
2017-09-15T22:01:14.962Z,4.62
2017-09-15T22:03:47.984Z,5.10
2017-09-15T22:06:15.444Z,4.60
2017-09-15T22:08:42.912Z,4.03
2017-09-15T22:11:11.119Z,4.62
2017-09-15T22:13:38.588Z,4.62
2017-09-15T22:16:06.053Z,4.80
2017-09-15T22:18:33.522Z,5.10
2017-09-15T22:21:00.987Z,4.15
2017-09-15T22:23:28.427Z,4.72
2017-09-15T22:25:56.636Z,5.20
2017-09-15T22:28:24.858Z,4.70
2017-09-15T22:30:52.379Z,5.00
2017-09-15T22:33:20.669Z,4.53
2017-09-15T22:35:48.107Z,5.05
2017-09-15T22:38:16.316Z,3.70
2017-09-15T22:40:43.781Z,4.40
2017-09-15T22:43:11.233Z,4.30
2017-09-15T22:45:38.689Z,6.90
2017-09-15T22:48:06.152Z,5.53
2017-09-15T22:50:33.637Z,6.53
2017-09-15T22:53:01.084Z,5.28
2017-09-15T22:55:28.516Z,5.00
2017-09-15T22:57:55.969Z,4.90
2017-09-15T23:00:23.514Z,4.57
2017-09-15T23:02:50.966Z,5.35
2017-09-15T23:05:18.432Z,4.95
2017-09-15T23:07:45.896Z,4.40
2017-09-15T23:10:13.331Z,5.80
2017-09-15T23:12:40.806Z,6.72
2017-09-15T23:15:08.260Z,5.65
2017-09-15T23:17:35.711Z,4.45
2017-09-15T23:20:03.173Z,4.97
2017-09-15T23:22:30.608Z,5.60
2017-09-15T23:24:58.166Z,4.30
2017-09-15T23:27:25.606Z,4.72
2017-09-15T23:29:53.830Z,4.70
2017-09-15T23:32:21.287Z,4.22
2017-09-15T23:34:48.741Z,3.90
2017-09-15T23:37:16.884Z,5.03
2017-09-15T23:39:44.335Z,3.70
2017-09-15T23:42:11.796Z,3.72
2017-09-15T23:44:39.229Z,4.50
2017-09-15T23:47:07.564Z,4.00
2017-09-15T23:49:35.026Z,3.90
2017-09-15T23:52:02.475Z,4.12
2017-09-15T23:54:29.933Z,5.40
2017-09-15T23:56:57.376Z,4.90
2017-09-15T23:59:24.827Z,5.80
